createdAt,value
2022-10-12T00:01:13.053Z,98278.41
2022-10-12T00:03:41.006Z,98283.31
2022-10-12T00:06:15.082Z,98290.06
2022-10-12T00:08:45.221Z,98285.44
2022-10-12T00:11:20.905Z,98277.94
2022-10-12T00:13:49.592Z,98275.78
2022-10-12T00:16:19.701Z,98270.63
2022-10-12T00:18:58.772Z,98267.06
2022-10-12T00:21:29.596Z,98271.97
2022-10-12T00:24:01.587Z,98278.69
2022-10-12T00:26:29.906Z,98269.75
2022-10-12T00:29:01.645Z,98274.31
2022-10-12T00:31:31.051Z,98279.69
2022-10-12T00:34:02.201Z,98267.47
2022-10-12T00:36:35.130Z,98269.50
2022-10-12T00:39:06.425Z,98266.03
2022-10-12T00:41:39.030Z,98267.78
2022-10-12T00:44:54.795Z,98261.31
2022-10-12T00:47:37.879Z,98273.41
2022-10-12T00:50:29.564Z,98266.25
2022-10-12T00:53:14.325Z,98272.53
2022-10-12T00:55:59.612Z,98267.06
2022-10-12T00:58:31.556Z,98273.16
2022-10-12T01:01:05.428Z,98269.69
2022-10-12T01:03:34.960Z,98272.25
2022-10-12T01:06:03.882Z,98270.25
2022-10-12T01:08:31.718Z,98274.50
2022-10-12T01:10:59.508Z,98283.38
2022-10-12T01:13:27.538Z,98275.88
2022-10-12T01:16:29.785Z,98278.22
2022-10-12T01:19:24.526Z,98273.56
2022-10-12T01:22:07.581Z,98263.91
2022-10-12T01:25:23.058Z,98268.28
2022-10-12T01:28:00.984Z,98269.50
2022-10-12T01:30:36.744Z,98269.38
2022-10-12T01:33:25.939Z,98268.06
2022-10-12T01:36:10.149Z,98260.69
2022-10-12T01:38:59.768Z,98260.56
2022-10-12T01:41:54.773Z,98262.56
2022-10-12T01:44:26.133Z,98258.41
2022-10-12T01:46:55.758Z,98253.22
2022-10-12T01:49:27.668Z,98250.88
2022-10-12T01:52:24.447Z,98257.06
2022-10-12T01:55:11.429Z,98256.41
2022-10-12T01:58:09.650Z,98257.75
2022-10-12T02:01:08.976Z,98253.94
2022-10-12T02:04:03.762Z,98254.25
2022-10-12T02:06:46.278Z,98257.06
2022-10-12T02:09:30.776Z,98251.19
2022-10-12T02:12:22.984Z,98245.84
2022-10-12T02:14:57.224Z,98248.50
2022-10-12T02:21:34.785Z,98251.31
2022-10-12T02:24:08.343Z,98249.28
2022-10-12T02:26:41.239Z,98249.78
2022-10-12T02:29:16.102Z,98250.09
2022-10-12T02:32:27.382Z,98245.75
2022-10-12T02:35:33.196Z,98243.22
2022-10-12T02:38:12.095Z,98240.81
2022-10-12T02:41:18.560Z,98238.97
2022-10-12T02:43:57.910Z,98246.50
2022-10-12T02:46:27.217Z,98239.09
2022-10-12T02:48:59.066Z,98237.06
2022-10-12T02:51:31.329Z,98245.59
2022-10-12T02:53:59.793Z,98238.69
2022-10-12T02:56:27.729Z,98234.47
2022-10-12T02:58:55.591Z,98236.44
2022-10-12T03:01:23.497Z,98237.75
2022-10-12T03:03:51.481Z,98238.56
2022-10-12T03:06:20.272Z,98242.13
2022-10-12T03:08:48.167Z,98247.28
2022-10-12T03:11:16.081Z,98247.47
2022-10-12T03:13:43.926Z,98240.91
2022-10-12T03:16:12.249Z,98244.06
2022-10-12T03:18:40.399Z,98239.34
2022-10-12T03:21:08.495Z,98244.72
2022-10-12T03:23:36.646Z,98237.88
2022-10-12T03:26:06.204Z,98238.06
2022-10-12T03:28:34.890Z,98242.88
2022-10-12T03:31:03.183Z,98234.50
2022-10-12T03:33:30.960Z,98240.16
2022-10-12T03:35:59.837Z,98237.66
2022-10-12T03:38:27.631Z,98234.34
2022-10-12T03:40:55.658Z,98234.50
2022-10-12T03:43:23.644Z,98233.34
2022-10-12T03:45:52.757Z,98232.69
2022-10-12T03:48:20.953Z,98230.66
2022-10-12T03:50:53.050Z,98237.50
2022-10-12T03:53:21.386Z,98236.03
2022-10-12T03:55:49.238Z,98237.56
2022-10-12T03:58:17.229Z,98240.81
2022-10-12T04:00:45.194Z,98233.94
2022-10-12T04:03:13.067Z,98225.88
2022-10-12T04:05:41.099Z,98234.47
2022-10-12T04:08:09.383Z,98238.31
2022-10-12T04:10:37.226Z,98242.88
2022-10-12T04:13:05.052Z,98240.19
2022-10-12T04:15:32.843Z,98240.84
2022-10-12T04:18:00.615Z,98242.53
2022-10-12T04:20:28.499Z,98238.81
2022-10-12T04:22:56.267Z,98240.13
2022-10-12T04:25:29.172Z,98241.63
2022-10-12T04:27:58.176Z,98246.44
2022-10-12T04:30:26.084Z,98243.59
2022-10-12T04:32:53.909Z,98240.19
2022-10-12T04:35:21.712Z,98248.09
2022-10-12T04:37:49.541Z,98239.00
2022-10-12T04:40:18.129Z,98247.75
2022-10-12T04:42:45.903Z,98259.81
2022-10-12T04:45:14.288Z,98253.22
2022-10-12T04:47:42.090Z,98256.72
2022-10-12T04:50:10.291Z,98260.94
2022-10-12T04:52:38.090Z,98252.88
2022-10-12T04:55:06.804Z,98255.56
2022-10-12T04:57:34.593Z,98264.28
2022-10-12T05:00:02.562Z,98254.34
2022-10-12T05:02:30.353Z,98264.44
2022-10-12T05:04:58.282Z,98263.78
2022-10-12T05:07:26.061Z,98257.56
2022-10-12T05:09:53.901Z,98255.91
2022-10-12T05:12:21.692Z,98254.88
2022-10-12T05:14:50.664Z,98260.06
2022-10-12T05:17:18.481Z,98265.28
2022-10-12T05:19:46.331Z,98254.19
2022-10-12T05:22:14.121Z,98259.34
2022-10-12T05:24:41.979Z,98256.88
2022-10-12T05:27:09.778Z,98263.06
2022-10-12T05:29:37.635Z,98264.94
2022-10-12T05:32:05.738Z,98254.53
2022-10-12T05:34:33.752Z,98251.84
2022-10-12T05:37:01.672Z,98255.19
2022-10-12T05:39:29.530Z,98252.31
2022-10-12T05:41:57.385Z,98253.31
2022-10-12T05:44:25.205Z,98256.66
2022-10-12T05:46:53.112Z,98259.00
2022-10-12T05:49:20.947Z,98255.09
2022-10-12T05:51:48.799Z,98262.34
2022-10-12T05:54:16.634Z,98262.34
2022-10-12T05:56:44.407Z,98264.84
2022-10-12T05:59:12.485Z,98265.03
2022-10-12T06:01:40.489Z,98262.50
2022-10-12T06:04:08.379Z,98262.34
2022-10-12T06:06:36.158Z,98261.34
2022-10-12T06:09:04.116Z,98266.72
2022-10-12T06:11:35.546Z,98270.22
2022-10-12T06:14:04.771Z,98269.19
2022-10-12T06:16:32.613Z,98270.69
2022-10-12T06:19:00.430Z,98264.28
2022-10-12T06:21:33.671Z,98265.16
2022-10-12T06:24:02.314Z,98272.19
2022-10-12T06:26:30.389Z,98270.31
2022-10-12T06:29:00.642Z,98273.00
2022-10-12T06:31:29.316Z,98273.00
2022-10-12T06:33:57.191Z,98282.56
2022-10-12T06:36:25.050Z,98278.03
2022-10-12T06:38:53.277Z,98276.00
2022-10-12T06:41:21.057Z,98274.63
2022-10-12T06:43:48.885Z,98278.97
2022-10-12T06:46:16.753Z,98279.81
2022-10-12T06:48:44.904Z,98280.28
2022-10-12T06:51:13.114Z,98276.56
2022-10-12T06:53:40.919Z,98279.91
2022-10-12T06:56:10.669Z,98269.63
2022-10-12T06:58:38.892Z,98279.84
2022-10-12T07:01:10.788Z,98278.00
2022-10-12T07:03:38.836Z,98277.44
2022-10-12T07:06:14.426Z,98278.25
2022-10-12T07:08:42.909Z,98281.50
2022-10-12T07:11:13.825Z,98285.50
2022-10-12T07:13:41.698Z,98280.25
2022-10-12T07:16:09.539Z,98282.53
2022-10-12T07:18:37.530Z,98287.38
2022-10-12T07:21:05.504Z,98281.63
2022-10-12T07:23:34.679Z,98291.19
2022-10-12T07:26:02.438Z,98286.25
2022-10-12T07:28:30.303Z,98282.56
2022-10-12T07:31:07.914Z,98287.56
2022-10-12T07:33:38.645Z,98278.31
2022-10-12T07:36:17.309Z,98283.50
2022-10-12T07:38:49.137Z,98274.22
2022-10-12T07:41:17.755Z,98280.72
2022-10-12T07:43:45.628Z,98282.69
2022-10-12T07:46:13.603Z,98285.69
2022-10-12T07:48:47.267Z,98286.16
2022-10-12T07:51:18.396Z,98281.03
2022-10-12T07:53:46.321Z,98275.09
2022-10-12T07:56:17.352Z,98278.88
2022-10-12T07:58:54.151Z,98282.88
2022-10-12T08:01:25.524Z,98277.13
2022-10-12T08:03:58.822Z,98279.44
2022-10-12T08:06:34.124Z,98280.34
2022-10-12T08:09:03.456Z,98289.72
2022-10-12T08:11:31.391Z,98288.69
2022-10-12T08:13:59.261Z,98291.19
2022-10-12T08:16:27.116Z,98285.41
2022-10-12T08:18:54.971Z,98290.81
2022-10-12T08:21:22.770Z,98293.78
2022-10-12T08:23:50.650Z,98291.34
2022-10-12T08:26:18.495Z,98287.91
2022-10-12T08:28:46.504Z,98292.06
2022-10-12T08:31:16.871Z,98289.00
2022-10-12T08:33:45.172Z,98291.28
2022-10-12T08:36:13.659Z,98288.59
2022-10-12T08:38:43.628Z,98294.91
2022-10-12T08:41:28.600Z,98283.38
2022-10-12T08:44:42.837Z,98284.00
2022-10-12T08:47:31.980Z,98282.88
2022-10-12T08:50:02.566Z,98291.44
2022-10-12T08:52:57.293Z,98282.56
2022-10-12T08:55:44.358Z,98286.81
2022-10-12T08:58:22.586Z,98285.22
2022-10-12T09:01:12.866Z,98283.19
2022-10-12T09:04:33.406Z,98278.50
2022-10-12T09:07:19.893Z,98279.41
2022-10-12T09:10:10.813Z,98284.41
2022-10-12T09:13:00.405Z,98286.53
2022-10-12T09:16:03.781Z,98283.22
2022-10-12T09:18:41.554Z,98276.84
2022-10-12T09:21:17.644Z,98278.31
2022-10-12T09:23:46.772Z,98282.69
2022-10-12T09:26:26.139Z,98285.59
2022-10-12T09:28:58.477Z,98283.53
2022-10-12T09:31:37.905Z,98287.72
2022-10-12T09:34:08.498Z,98288.75
2022-10-12T09:36:40.182Z,98289.19
2022-10-12T09:39:18.807Z,98290.47
2022-10-12T09:41:49.188Z,98295.28
2022-10-12T09:44:35.325Z,98297.13
2022-10-12T09:47:09.105Z,98303.38
2022-10-12T09:49:44.688Z,98296.50
2022-10-12T09:52:15.570Z,98296.50
2022-10-12T09:54:57.481Z,98298.16
2022-10-12T09:57:36.197Z,98299.28
2022-10-12T10:00:27.602Z,98303.25
2022-10-12T10:02:56.320Z,98297.84
2022-10-12T10:05:31.909Z,98294.50
2022-10-12T10:08:29.339Z,98292.25
2022-10-12T10:11:01.685Z,98284.78
2022-10-12T10:13:32.476Z,98291.84
2022-10-12T10:16:20.155Z,98286.25
2022-10-12T10:18:58.956Z,98287.97
2022-10-12T10:21:37.785Z,98290.91
2022-10-12T10:24:20.952Z,98280.94
2022-10-12T10:26:54.509Z,98294.06
2022-10-12T10:29:22.118Z,98295.19
2022-10-12T10:32:26.311Z,98287.72
2022-10-12T10:35:22.506Z,98289.41
2022-10-12T10:37:55.745Z,98283.81
2022-10-12T10:40:29.137Z,98284.00
2022-10-12T10:43:03.838Z,98282.75
2022-10-12T10:45:48.415Z,98283.81
2022-10-12T10:48:23.188Z,98296.75
2022-10-12T10:51:03.761Z,98294.03
2022-10-12T10:53:47.197Z,98292.41
2022-10-12T10:56:27.548Z,98291.84
2022-10-12T10:59:00.204Z,98285.56
2022-10-12T11:01:56.796Z,98290.56
2022-10-12T11:04:41.187Z,98282.28
2022-10-12T11:07:30.104Z,98287.06
2022-10-12T11:10:02.709Z,98283.13
2022-10-12T11:12:36.106Z,98278.16
2022-10-12T11:16:09.631Z,98270.66
2022-10-12T11:18:47.324Z,98276.91
2022-10-12T11:21:23.776Z,98278.34
2022-10-12T11:24:05.838Z,98279.59
2022-10-12T11:26:43.529Z,98275.44
2022-10-12T11:29:14.711Z,98284.16
2022-10-12T11:32:20.582Z,98271.06
2022-10-12T11:34:59.831Z,98267.75
2022-10-12T11:37:38.820Z,98262.53
2022-10-12T11:40:23.544Z,98262.94
2022-10-12T11:42:56.085Z,98262.75
2022-10-12T11:45:34.444Z,98250.47
2022-10-12T11:48:12.153Z,98246.28
2022-10-12T11:50:45.056Z,98249.63
2022-10-12T11:53:48.276Z,98250.06
2022-10-12T11:56:43.292Z,98250.03
2022-10-12T11:59:27.314Z,98239.81
2022-10-12T12:02:13.683Z,98242.31
2022-10-12T12:04:47.697Z,98245.25
2022-10-12T12:07:43.744Z,98238.16
2022-10-12T12:10:31.863Z,98241.25
2022-10-12T12:13:15.014Z,98237.28
2022-10-12T12:15:49.817Z,98229.16
2022-10-12T12:18:24.426Z,98230.41
2022-10-12T12:21:08.737Z,98233.88
2022-10-12T12:23:54.139Z,98222.66
2022-10-12T12:26:28.632Z,98220.59
2022-10-12T12:29:17.585Z,98209.34
2022-10-12T12:31:59.099Z,98205.19
2022-10-12T12:34:28.109Z,98206.66
2022-10-12T12:36:57.374Z,98205.59
2022-10-12T12:39:32.832Z,98200.78
2022-10-12T12:42:08.489Z,98210.13
2022-10-12T12:44:42.648Z,98206.97
2022-10-12T12:50:22.487Z,98202.81
2022-10-12T12:52:50.844Z,98205.13
2022-10-12T12:55:30.490Z,98202.63
2022-10-12T12:58:26.191Z,98201.19
2022-10-12T13:01:50.287Z,98199.09
2022-10-12T13:05:15.684Z,98200.38
2022-10-12T13:08:12.599Z,98193.28
2022-10-12T13:11:30.186Z,98184.59
2022-10-12T13:14:19.483Z,98187.91
2022-10-12T13:17:35.732Z,98184.22
2022-10-12T13:20:34.443Z,98184.66
2022-10-12T13:23:11.773Z,98181.72
2022-10-12T13:25:56.204Z,98184.44
2022-10-12T13:28:31.737Z,98181.88
2022-10-12T13:31:09.292Z,98183.94
2022-10-12T13:34:29.845Z,98180.53
2022-10-12T13:37:02.112Z,98174.03
2022-10-12T13:39:33.123Z,98171.34
2022-10-12T13:42:04.783Z,98164.09
2022-10-12T13:44:36.468Z,98170.56
2022-10-12T13:47:32.393Z,98166.38
2022-10-12T13:50:00.872Z,98168.03
2022-10-12T13:52:34.107Z,98159.50
2022-10-12T13:55:14.774Z,98167.97
2022-10-12T13:57:48.511Z,98161.72
2022-10-12T14:00:16.452Z,98167.69
2022-10-12T14:02:59.785Z,98158.50
2022-10-12T14:05:31.390Z,98161.94
2022-10-12T14:08:11.093Z,98166.66
2022-10-12T14:10:41.051Z,98160.75
2022-10-12T14:13:15.492Z,98160.72
2022-10-12T14:15:43.469Z,98151.69
2022-10-12T14:18:35.114Z,98150.50
2022-10-12T14:21:14.608Z,98153.13
2022-10-12T14:23:48.911Z,98150.41
2022-10-12T14:26:44.936Z,98147.13
2022-10-12T14:29:45.561Z,98151.00
2022-10-12T14:32:13.204Z,98153.41
2022-10-12T14:34:48.895Z,98160.56
2022-10-12T14:37:16.585Z,98148.97
2022-10-12T14:39:48.380Z,98152.59
2022-10-12T14:42:27.788Z,98152.66
2022-10-12T14:44:56.103Z,98152.69
2022-10-12T14:47:29.142Z,98144.78
2022-10-12T14:52:55.065Z,98145.09
2022-10-12T14:55:25.318Z,98150.91
2022-10-12T14:57:53.585Z,98152.00
2022-10-12T15:00:29.326Z,98142.66
2022-10-12T15:02:57.876Z,98139.75
2022-10-12T15:05:29.142Z,98140.00
2022-10-12T15:07:56.960Z,98151.91
2022-10-12T15:10:27.556Z,98149.22
2022-10-12T15:12:55.402Z,98151.97
2022-10-12T15:15:46.540Z,98150.94
2022-10-12T15:18:14.418Z,98149.72
2022-10-12T15:20:46.761Z,98149.94
2022-10-12T15:23:17.330Z,98150.34
2022-10-12T15:25:56.832Z,98151.81
2022-10-12T15:28:24.747Z,98146.66
2022-10-12T15:31:16.045Z,98146.00
2022-10-12T15:33:41.784Z,98132.09
2022-10-12T15:36:10.361Z,98145.38
2022-10-12T15:38:38.525Z,98143.53
2022-10-12T15:41:10.250Z,98140.03
2022-10-12T15:43:41.112Z,98144.41
2022-10-12T15:46:12.299Z,98136.94
2022-10-12T15:48:40.439Z,98132.38
2022-10-12T15:51:19.155Z,98138.81
2022-10-12T15:53:47.055Z,98133.00
2022-10-12T15:56:16.588Z,98131.34
2022-10-12T15:58:44.906Z,98137.16
2022-10-12T16:01:19.526Z,98131.97
2022-10-12T16:03:49.425Z,98142.78
2022-10-12T16:06:17.513Z,98129.91
2022-10-12T16:08:45.331Z,98133.44
2022-10-12T16:11:16.100Z,98133.66
2022-10-12T16:13:54.076Z,98129.50
2022-10-12T16:16:24.467Z,98129.72
2022-10-12T16:18:54.037Z,98133.25
2022-10-12T16:21:22.223Z,98138.25
2022-10-12T16:23:50.024Z,98128.66
2022-10-12T16:26:17.980Z,98136.38
2022-10-12T16:28:45.897Z,98129.09
2022-10-12T16:31:17.691Z,98134.94
2022-10-12T16:33:46.116Z,98135.31
2022-10-12T16:36:16.870Z,98133.03
2022-10-12T16:38:45.109Z,98128.25
2022-10-12T16:41:17.102Z,98125.34
2022-10-12T16:43:45.680Z,98137.81
2022-10-12T16:46:13.524Z,98138.63
2022-10-12T16:48:41.581Z,98138.22
2022-10-12T16:51:11.417Z,98134.66
2022-10-12T16:53:42.351Z,98137.75
2022-10-12T16:56:10.735Z,98136.09
2022-10-12T16:58:38.607Z,98129.25
2022-10-12T17:01:11.593Z,98134.41
2022-10-12T17:03:40.422Z,98135.03
2022-10-12T17:06:08.865Z,98138.31
2022-10-12T17:08:39.440Z,98133.75
2022-10-12T17:11:10.817Z,98140.38
2022-10-12T17:13:39.959Z,98134.13
2022-10-12T17:16:28.451Z,98132.22
2022-10-12T17:18:59.652Z,98129.47
2022-10-12T17:21:28.299Z,98132.97
2022-10-12T17:23:58.486Z,98135.88
2022-10-12T17:26:26.776Z,98138.56
2022-10-12T17:28:54.795Z,98137.53
2022-10-12T17:31:22.717Z,98136.28
2022-10-12T17:33:50.564Z,98137.31
2022-10-12T17:36:18.455Z,98136.69
2022-10-12T17:38:49.003Z,98145.38
2022-10-12T17:41:16.789Z,98145.56
2022-10-12T17:43:44.631Z,98140.59
2022-10-12T17:46:12.673Z,98145.75
2022-10-12T17:48:40.520Z,98146.13
2022-10-12T17:51:12.452Z,98146.09
2022-10-12T17:53:40.687Z,98155.19
2022-10-12T17:56:13.221Z,98155.78
2022-10-12T17:58:41.253Z,98151.16
2022-10-12T18:01:14.245Z,98155.28
2022-10-12T18:03:44.718Z,98158.59
2022-10-12T18:06:16.658Z,98157.50
2022-10-12T18:08:44.855Z,98161.81
2022-10-12T18:11:13.403Z,98156.81
2022-10-12T18:13:44.750Z,98144.75
2022-10-12T18:16:12.956Z,98154.06
2022-10-12T18:18:41.874Z,98157.78
2022-10-12T18:21:14.034Z,98153.59
2022-10-12T18:23:41.892Z,98155.66
2022-10-12T18:26:13.270Z,98161.22
2022-10-12T18:28:42.118Z,98154.56
2022-10-12T18:31:18.693Z,98154.56
2022-10-12T18:33:46.835Z,98159.31
2022-10-12T18:36:17.053Z,98167.59
2022-10-12T18:38:45.283Z,98170.88
2022-10-12T18:41:17.091Z,98167.53
2022-10-12T18:43:45.376Z,98158.19
2022-10-12T18:46:18.333Z,98160.25
2022-10-12T18:48:48.230Z,98161.88
2022-10-12T18:51:39.246Z,98165.19
2022-10-12T18:54:08.710Z,98172.41
2022-10-12T18:56:37.136Z,98176.72
2022-10-12T18:59:06.533Z,98169.19
2022-10-12T19:01:34.636Z,98160.88
2022-10-12T19:04:04.282Z,98162.09
2022-10-12T19:06:36.193Z,98165.38
2022-10-12T19:09:05.820Z,98166.59
2022-10-12T19:11:34.681Z,98162.16
2022-10-12T19:14:08.761Z,98159.66
2022-10-12T19:16:36.743Z,98167.09
2022-10-12T19:19:09.134Z,98168.94
2022-10-12T19:21:38.008Z,98162.91
2022-10-12T19:24:08.775Z,98164.13
2022-10-12T19:26:36.811Z,98165.53
2022-10-12T19:29:05.638Z,98171.50
2022-10-12T19:31:39.854Z,98163.59
2022-10-12T19:34:11.168Z,98152.75
2022-10-12T19:36:40.349Z,98153.97
2022-10-12T19:39:13.945Z,98149.63
2022-10-12T19:41:42.125Z,98153.97
2022-10-12T19:44:12.779Z,98165.56
2022-10-12T19:46:42.602Z,98168.06
2022-10-12T19:49:14.093Z,98169.28
2022-10-12T19:51:43.049Z,98169.66
2022-10-12T19:54:13.606Z,98155.97
2022-10-12T19:56:41.680Z,98157.31
2022-10-12T19:59:09.878Z,98152.31
2022-10-12T20:01:39.584Z,98147.13
2022-10-12T20:04:11.910Z,98147.53
2022-10-12T20:06:40.497Z,98156.59
2022-10-12T20:09:10.340Z,98154.53
2022-10-12T20:11:38.589Z,98154.38
2022-10-12T20:14:07.309Z,98167.81
2022-10-12T20:16:36.521Z,98164.66
2022-10-12T20:19:05.512Z,98167.28
2022-10-12T20:21:33.644Z,98164.94
2022-10-12T20:24:01.483Z,98168.22
2022-10-12T20:26:29.361Z,98166.88
2022-10-12T20:28:57.178Z,98166.72
2022-10-12T20:31:27.357Z,98171.06
2022-10-12T20:33:56.339Z,98155.31
2022-10-12T20:36:31.478Z,98159.41
2022-10-12T20:38:59.928Z,98162.91
2022-10-12T20:41:27.998Z,98157.75
2022-10-12T20:43:58.396Z,98153.56
2022-10-12T20:46:27.496Z,98151.91
2022-10-12T20:49:01.802Z,98153.72
2022-10-12T20:51:35.876Z,98158.69
2022-10-12T20:54:05.897Z,98164.75
2022-10-12T20:56:34.277Z,98164.50
2022-10-12T20:59:02.344Z,98157.19
2022-10-12T21:01:30.317Z,98146.81
2022-10-12T21:03:58.257Z,98147.81
2022-10-12T21:06:26.173Z,98148.84
2022-10-12T21:08:57.119Z,98144.69
2022-10-12T21:11:25.541Z,98147.53
2022-10-12T21:13:54.654Z,98144.69
2022-10-12T21:16:22.640Z,98138.28
2022-10-12T21:18:54.571Z,98142.34
2022-10-12T21:21:23.263Z,98139.19
2022-10-12T21:23:57.837Z,98137.16
2022-10-12T21:26:28.870Z,98140.66
2022-10-12T21:28:57.695Z,98136.16
2022-10-12T21:31:30.976Z,98141.53
2022-10-12T21:34:05.406Z,98138.28
2022-10-12T21:36:36.365Z,98145.34
2022-10-12T21:39:15.855Z,98147.81
2022-10-12T21:41:44.143Z,98141.25
2022-10-12T21:44:12.406Z,98140.03
2022-10-12T21:46:40.842Z,98131.97
2022-10-12T21:49:13.971Z,98131.63
2022-10-12T21:51:41.822Z,98136.59
2022-10-12T21:54:09.748Z,98135.59
2022-10-12T21:56:38.145Z,98135.59
2022-10-12T21:59:06.621Z,98136.59
2022-10-12T22:01:39.330Z,98134.31
2022-10-12T22:04:12.925Z,98134.47
2022-10-12T22:06:41.225Z,98140.88
2022-10-12T22:09:16.966Z,98127.25
2022-10-12T22:11:44.992Z,98130.97
2022-10-12T22:14:17.205Z,98118.19
2022-10-12T22:16:46.242Z,98119.75
2022-10-12T22:19:20.255Z,98133.38
2022-10-12T22:21:51.172Z,98136.88
2022-10-12T22:24:21.367Z,98130.88
2022-10-12T22:26:49.361Z,98127.00
2022-10-12T22:29:17.238Z,98125.97
2022-10-12T22:31:46.377Z,98127.44
2022-10-12T22:34:16.093Z,98120.22
2022-10-12T22:36:44.638Z,98121.22
2022-10-12T22:39:13.592Z,98125.38
2022-10-12T22:41:44.946Z,98126.59
2022-10-12T22:44:12.840Z,98120.41
2022-10-12T22:46:40.684Z,98123.28
2022-10-12T22:49:08.563Z,98122.28
2022-10-12T22:51:39.378Z,98118.94
2022-10-12T22:54:07.786Z,98119.28
2022-10-12T22:56:35.648Z,98114.94
2022-10-12T22:59:07.125Z,98116.59
2022-10-12T23:01:36.239Z,98112.34
2022-10-12T23:04:04.681Z,98103.94
2022-10-12T23:06:32.586Z,98104.09
2022-10-12T23:09:00.562Z,98099.56
2022-10-12T23:11:29.693Z,98100.31
2022-10-12T23:13:58.505Z,98105.09
2022-10-12T23:16:31.847Z,98102.63
2022-10-12T23:19:06.078Z,98099.47
2022-10-12T23:21:34.941Z,98097.53
2022-10-12T23:24:05.065Z,98105.22
2022-10-12T23:26:33.946Z,98104.28
2022-10-12T23:29:01.906Z,98105.78
2022-10-12T23:31:30.695Z,98118.72
2022-10-12T23:34:01.215Z,98112.53
2022-10-12T23:36:29.595Z,98118.06
2022-10-12T23:39:01.238Z,98114.91
2022-10-12T23:41:29.275Z,98116.88
2022-10-12T23:43:57.220Z,98122.91
2022-10-12T23:46:25.050Z,98127.31
2022-10-12T23:48:54.743Z,98128.00
2022-10-12T23:51:22.681Z,98126.16
2022-10-12T23:53:50.576Z,98131.88
2022-10-12T23:56:18.390Z,98128.38
2022-10-12T23:58:46.231Z,98128.91
